sensor_id;sensor_type;location;lat;lon;timestamp;pressure;altitude;pressure_sealevel;temperature;humidity
59154;BME280;44935;48.944;9.418;2022-12-18T00:01:23;99836.78;;;-8.28;43.02
59154;BME280;44935;48.944;9.418;2022-12-18T00:03:53;99839.85;;;-8.09;42.22
59154;BME280;44935;48.944;9.418;2022-12-18T00:06:22;99842.33;;;-7.79;42.25
59154;BME280;44935;48.944;9.418;2022-12-18T00:08:51;99841.77;;;-7.60;42.22
59154;BME280;44935;48.944;9.418;2022-12-18T00:11:20;99839.72;;;-7.81;42.47
59154;BME280;44935;48.944;9.418;2022-12-18T00:13:49;99845.13;;;-7.44;41.86
59154;BME280;44935;48.944;9.418;2022-12-18T00:16:18;99843.52;;;-7.63;42.11
59154;BME280;44935;48.944;9.418;2022-12-18T00:18:49;99848.71;;;-7.66;41.51
59154;BME280;44935;48.944;9.418;2022-12-18T00:21:17;99848.74;;;-7.75;41.13
59154;BME280;44935;48.944;9.418;2022-12-18T00:23:47;99848.78;;;-7.77;41.98
59154;BME280;44935;48.944;9.418;2022-12-18T00:26:19;99848.94;;;-7.26;41.10
59154;BME280;44935;48.944;9.418;2022-12-18T00:28:49;99852.25;;;-6.94;40.25
59154;BME280;44935;48.944;9.418;2022-12-18T00:31:19;99844.85;;;-7.32;40.52
59154;BME280;44935;48.944;9.418;2022-12-18T00:33:48;99843.35;;;-7.60;40.91
59154;BME280;44935;48.944;9.418;2022-12-18T00:36:19;99840.28;;;-7.93;41.53
59154;BME280;44935;48.944;9.418;2022-12-18T00:38:48;99836.94;;;-7.98;41.84
59154;BME280;44935;48.944;9.418;2022-12-18T00:41:16;99841.52;;;-7.77;42.35
59154;BME280;44935;48.944;9.418;2022-12-18T00:43:45;99837.89;;;-7.67;41.88
59154;BME280;44935;48.944;9.418;2022-12-18T00:46:14;99836.67;;;-7.79;41.84
59154;BME280;44935;48.944;9.418;2022-12-18T00:48:42;99836.14;;;-7.58;41.62
59154;BME280;44935;48.944;9.418;2022-12-18T00:51:11;99845.22;;;-7.72;41.55
59154;BME280;44935;48.944;9.418;2022-12-18T00:53:38;99852.04;;;-7.87;42.03
59154;BME280;44935;48.944;9.418;2022-12-18T00:56:08;99844.73;;;-8.21;42.04
59154;BME280;44935;48.944;9.418;2022-12-18T00:58:37;99834.95;;;-8.19;42.49
59154;BME280;44935;48.944;9.418;2022-12-18T01:01:09;99831.50;;;-8.29;41.94
59154;BME280;44935;48.944;9.418;2022-12-18T01:03:39;99835.63;;;-8.61;42.71
59154;BME280;44935;48.944;9.418;2022-12-18T01:06:12;99840.12;;;-8.25;42.93
59154;BME280;44935;48.944;9.418;2022-12-18T01:08:40;99844.23;;;-7.71;41.74
59154;BME280;44935;48.944;9.418;2022-12-18T01:11:09;99843.21;;;-7.77;41.73
59154;BME280;44935;48.944;9.418;2022-12-18T01:13:38;99844.77;;;-7.51;42.04
59154;BME280;44935;48.944;9.418;2022-12-18T01:16:05;99842.04;;;-7.73;41.35
59154;BME280;44935;48.944;9.418;2022-12-18T01:18:33;99839.21;;;-7.74;41.46
59154;BME280;44935;48.944;9.418;2022-12-18T01:21:06;99840.82;;;-7.53;41.22
59154;BME280;44935;48.944;9.418;2022-12-18T01:23:35;99843.98;;;-8.01;41.20
59154;BME280;44935;48.944;9.418;2022-12-18T01:26:09;99850.85;;;-7.84;41.36
59154;BME280;44935;48.944;9.418;2022-12-18T01:28:37;99853.18;;;-8.53;41.88
59154;BME280;44935;48.944;9.418;2022-12-18T01:31:23;99855.52;;;-8.14;42.31
59154;BME280;44935;48.944;9.418;2022-12-18T01:33:54;99862.07;;;-8.06;42.05
59154;BME280;44935;48.944;9.418;2022-12-18T01:36:27;99869.13;;;-7.69;42.23
59154;BME280;44935;48.944;9.418;2022-12-18T01:38:59;99867.35;;;-8.19;42.07
59154;BME280;44935;48.944;9.418;2022-12-18T01:41:32;99862.38;;;-8.06;41.95
59154;BME280;44935;48.944;9.418;2022-12-18T01:44:01;99866.72;;;-8.03;41.85
59154;BME280;44935;48.944;9.418;2022-12-18T01:46:32;99859.72;;;-7.90;41.76
59154;BME280;44935;48.944;9.418;2022-12-18T01:49:02;99858.94;;;-7.38;41.16
59154;BME280;44935;48.944;9.418;2022-12-18T01:51:32;99854.33;;;-7.39;40.87
59154;BME280;44935;48.944;9.418;2022-12-18T01:54:00;99853.55;;;-7.67;41.08
59154;BME280;44935;48.944;9.418;2022-12-18T01:56:29;99857.23;;;-7.58;40.12
59154;BME280;44935;48.944;9.418;2022-12-18T01:59:00;99855.77;;;-7.81;39.95
59154;BME280;44935;48.944;9.418;2022-12-18T02:01:30;99855.09;;;-8.08;39.96
59154;BME280;44935;48.944;9.418;2022-12-18T02:04:21;99845.08;;;-7.51;39.77
59154;BME280;44935;48.944;9.418;2022-12-18T02:06:53;99844.61;;;-7.95;39.83
59154;BME280;44935;48.944;9.418;2022-12-18T02:09:26;99858.49;;;-8.40;40.81
59154;BME280;44935;48.944;9.418;2022-12-18T02:12:02;99862.26;;;-7.92;41.35
59154;BME280;44935;48.944;9.418;2022-12-18T02:14:37;99852.36;;;-8.02;41.58
59154;BME280;44935;48.944;9.418;2022-12-18T02:17:14;99843.62;;;-7.63;40.63
59154;BME280;44935;48.944;9.418;2022-12-18T02:19:55;99849.81;;;-7.35;40.42
59154;BME280;44935;48.944;9.418;2022-12-18T02:22:36;99862.55;;;-7.53;40.52
59154;BME280;44935;48.944;9.418;2022-12-18T02:25:18;99866.51;;;-8.30;41.03
59154;BME280;44935;48.944;9.418;2022-12-18T02:27:51;99871.79;;;-8.40;41.63
59154;BME280;44935;48.944;9.418;2022-12-18T02:30:20;99877.28;;;-8.75;42.02
59154;BME280;44935;48.944;9.418;2022-12-18T02:32:52;99874.15;;;-8.39;42.37
59154;BME280;44935;48.944;9.418;2022-12-18T02:35:26;99870.39;;;-8.33;41.80
59154;BME280;44935;48.944;9.418;2022-12-18T02:37:59;99858.66;;;-8.54;41.88
59154;BME280;44935;48.944;9.418;2022-12-18T02:40:35;99852.22;;;-8.26;41.74
59154;BME280;44935;48.944;9.418;2022-12-18T02:43:08;99857.49;;;-8.19;41.97
59154;BME280;44935;48.944;9.418;2022-12-18T02:45:46;99862.01;;;-7.77;40.89
59154;BME280;44935;48.944;9.418;2022-12-18T02:48:14;99871.63;;;-8.02;40.82
59154;BME280;44935;48.944;9.418;2022-12-18T02:50:46;99881.35;;;-8.19;41.35
59154;BME280;44935;48.944;9.418;2022-12-18T02:53:24;99876.46;;;-8.44;41.41
59154;BME280;44935;48.944;9.418;2022-12-18T02:55:58;99867.68;;;-8.20;41.66
59154;BME280;44935;48.944;9.418;2022-12-18T02:58:38;99885.56;;;-8.31;41.24
59154;BME280;44935;48.944;9.418;2022-12-18T03:01:11;99894.98;;;-8.34;41.54
59154;BME280;44935;48.944;9.418;2022-12-18T03:03:45;99894.34;;;-8.01;42.02
59154;BME280;44935;48.944;9.418;2022-12-18T03:06:21;99888.60;;;-8.48;42.21
59154;BME280;44935;48.944;9.418;2022-12-18T03:08:54;99888.33;;;-8.98;42.23
59154;BME280;44935;48.944;9.418;2022-12-18T03:11:24;99883.56;;;-8.70;42.57
59154;BME280;44935;48.944;9.418;2022-12-18T03:13:55;99882.27;;;-8.36;42.26
59154;BME280;44935;48.944;9.418;2022-12-18T03:16:27;99881.62;;;-8.08;42.16
59154;BME280;44935;48.944;9.418;2022-12-18T03:18:57;99884.86;;;-7.78;41.16
59154;BME280;44935;48.944;9.418;2022-12-18T03:21:29;99889.61;;;-7.62;41.30
59154;BME280;44935;48.944;9.418;2022-12-18T03:23:59;99885.69;;;-7.79;41.17
59154;BME280;44935;48.944;9.418;2022-12-18T03:26:29;99887.24;;;-7.62;40.65
59154;BME280;44935;48.944;9.418;2022-12-18T03:29:02;99887.31;;;-8.45;41.44
59154;BME280;44935;48.944;9.418;2022-12-18T03:31:31;99885.80;;;-9.45;41.59
59154;BME280;44935;48.944;9.418;2022-12-18T03:34:02;99893.96;;;-9.50;42.52
59154;BME280;44935;48.944;9.418;2022-12-18T03:36:36;99897.89;;;-9.55;42.77
59154;BME280;44935;48.944;9.418;2022-12-18T03:39:03;99901.37;;;-9.52;42.91
59154;BME280;44935;48.944;9.418;2022-12-18T03:41:33;99907.76;;;-9.41;42.80
59154;BME280;44935;48.944;9.418;2022-12-18T03:44:10;99903.01;;;-8.67;42.25
59154;BME280;44935;48.944;9.418;2022-12-18T03:46:41;99903.88;;;-8.32;41.53
59154;BME280;44935;48.944;9.418;2022-12-18T03:49:17;99901.23;;;-8.86;42.40
59154;BME280;44935;48.944;9.418;2022-12-18T03:51:50;99895.86;;;-8.63;42.51
59154;BME280;44935;48.944;9.418;2022-12-18T03:54:20;99894.28;;;-8.09;41.73
59154;BME280;44935;48.944;9.418;2022-12-18T03:57:00;99883.99;;;-7.99;41.52
59154;BME280;44935;48.944;9.418;2022-12-18T03:59:30;99889.85;;;-7.75;40.87
59154;BME280;44935;48.944;9.418;2022-12-18T04:02:00;99887.69;;;-7.53;40.61
59154;BME280;44935;48.944;9.418;2022-12-18T04:04:29;99888.18;;;-7.74;41.02
59154;BME280;44935;48.944;9.418;2022-12-18T04:06:58;99886.31;;;-7.66;40.85
59154;BME280;44935;48.944;9.418;2022-12-18T04:09:26;99880.12;;;-8.06;40.88
59154;BME280;44935;48.944;9.418;2022-12-18T04:11:57;99882.89;;;-7.71;40.19
59154;BME280;44935;48.944;9.418;2022-12-18T04:14:24;99883.51;;;-7.29;40.31
59154;BME280;44935;48.944;9.418;2022-12-18T04:16:51;99885.72;;;-7.61;40.26
59154;BME280;44935;48.944;9.418;2022-12-18T04:19:18;99892.84;;;-7.72;40.45
59154;BME280;44935;48.944;9.418;2022-12-18T04:21:45;99892.14;;;-8.21;40.22
59154;BME280;44935;48.944;9.418;2022-12-18T04:24:18;99888.58;;;-8.32;41.24
59154;BME280;44935;48.944;9.418;2022-12-18T04:26:44;99898.89;;;-7.60;40.79
59154;BME280;44935;48.944;9.418;2022-12-18T04:29:11;99904.15;;;-7.65;40.75
59154;BME280;44935;48.944;9.418;2022-12-18T04:31:39;99901.49;;;-8.29;40.55
59154;BME280;44935;48.944;9.418;2022-12-18T04:34:05;99896.32;;;-8.29;40.88
59154;BME280;44935;48.944;9.418;2022-12-18T04:36:32;99896.29;;;-8.36;40.66
59154;BME280;44935;48.944;9.418;2022-12-18T04:38:59;99895.58;;;-8.28;41.09
59154;BME280;44935;48.944;9.418;2022-12-18T04:41:26;99901.45;;;-8.10;41.20
59154;BME280;44935;48.944;9.418;2022-12-18T04:43:53;99915.27;;;-8.45;40.30
59154;BME280;44935;48.944;9.418;2022-12-18T04:46:20;99912.48;;;-8.11;41.00
59154;BME280;44935;48.944;9.418;2022-12-18T04:48:47;99900.64;;;-7.88;40.72
59154;BME280;44935;48.944;9.418;2022-12-18T04:51:14;99905.85;;;-8.44;40.45
59154;BME280;44935;48.944;9.418;2022-12-18T04:53:41;99910.35;;;-8.31;40.90
59154;BME280;44935;48.944;9.418;2022-12-18T04:56:10;99910.60;;;-7.86;40.56
59154;BME280;44935;48.944;9.418;2022-12-18T04:58:37;99909.26;;;-8.13;41.26
59154;BME280;44935;48.944;9.418;2022-12-18T05:01:05;99921.30;;;-8.29;41.47
59154;BME280;44935;48.944;9.418;2022-12-18T05:03:32;99913.15;;;-7.84;40.85
59154;BME280;44935;48.944;9.418;2022-12-18T05:06:00;99905.44;;;-7.41;39.64
59154;BME280;44935;48.944;9.418;2022-12-18T05:08:27;99902.05;;;-7.10;39.39
59154;BME280;44935;48.944;9.418;2022-12-18T05:10:59;99903.24;;;-7.47;39.65
59154;BME280;44935;48.944;9.418;2022-12-18T05:13:27;99905.47;;;-8.17;40.10
59154;BME280;44935;48.944;9.418;2022-12-18T05:15:54;99903.04;;;-7.83;40.59
59154;BME280;44935;48.944;9.418;2022-12-18T05:18:22;99897.06;;;-7.72;40.32
59154;BME280;44935;48.944;9.418;2022-12-18T05:20:49;99905.03;;;-7.92;40.14
59154;BME280;44935;48.944;9.418;2022-12-18T05:23:18;99903.01;;;-7.95;40.97
59154;BME280;44935;48.944;9.418;2022-12-18T05:25:50;99909.52;;;-8.59;41.29
59154;BME280;44935;48.944;9.418;2022-12-18T05:28:18;99906.88;;;-8.42;41.22
59154;BME280;44935;48.944;9.418;2022-12-18T05:30:48;99902.29;;;-8.30;41.12
59154;BME280;44935;48.944;9.418;2022-12-18T05:33:15;99896.51;;;-8.01;40.24
59154;BME280;44935;48.944;9.418;2022-12-18T05:35:43;99892.86;;;-10.11;45.11
59154;BME280;44935;48.944;9.418;2022-12-18T05:38:10;99896.66;;;-8.02;42.10
59154;BME280;44935;48.944;9.418;2022-12-18T05:40:42;99905.47;;;-8.61;40.89
59154;BME280;44935;48.944;9.418;2022-12-18T05:43:09;99908.23;;;-8.85;40.96
59154;BME280;44935;48.944;9.418;2022-12-18T05:45:37;99907.87;;;-8.69;42.01
59154;BME280;44935;48.944;9.418;2022-12-18T05:48:05;99909.05;;;-7.98;41.47
59154;BME280;44935;48.944;9.418;2022-12-18T05:50:34;99907.52;;;-7.55;39.74
59154;BME280;44935;48.944;9.418;2022-12-18T05:53:01;99913.08;;;-7.75;40.71
59154;BME280;44935;48.944;9.418;2022-12-18T05:55:29;99917.12;;;-7.96;40.13
59154;BME280;44935;48.944;9.418;2022-12-18T05:57:59;99925.54;;;-8.83;40.49
59154;BME280;44935;48.944;9.418;2022-12-18T06:00:27;99921.93;;;-8.37;41.24
59154;BME280;44935;48.944;9.418;2022-12-18T06:02:54;99922.09;;;-8.65;41.17
59154;BME280;44935;48.944;9.418;2022-12-18T06:05:21;99921.10;;;-9.25;41.81
59154;BME280;44935;48.944;9.418;2022-12-18T06:07:48;99920.84;;;-9.06;42.03
59154;BME280;44935;48.944;9.418;2022-12-18T06:10:15;99918.65;;;-8.73;41.99
59154;BME280;44935;48.944;9.418;2022-12-18T06:12:43;99919.66;;;-8.28;40.94
59154;BME280;44935;48.944;9.418;2022-12-18T06:15:11;99918.46;;;-9.49;41.46
59154;BME280;44935;48.944;9.418;2022-12-18T06:17:38;99918.98;;;-9.19;42.47
59154;BME280;44935;48.944;9.418;2022-12-18T06:20:05;99925.05;;;-9.33;42.56
59154;BME280;44935;48.944;9.418;2022-12-18T06:22:33;99925.83;;;-8.77;42.43
59154;BME280;44935;48.944;9.418;2022-12-18T06:25:00;99923.07;;;-9.10;42.39
59154;BME280;44935;48.944;9.418;2022-12-18T06:27:27;99924.44;;;-9.13;43.07
59154;BME280;44935;48.944;9.418;2022-12-18T06:29:56;99925.96;;;-9.48;42.06
59154;BME280;44935;48.944;9.418;2022-12-18T06:32:23;99923.90;;;-9.31;42.42
59154;BME280;44935;48.944;9.418;2022-12-18T06:34:50;99926.37;;;-9.14;42.41
59154;BME280;44935;48.944;9.418;2022-12-18T06:37:17;99925.31;;;-8.92;42.19
59154;BME280;44935;48.944;9.418;2022-12-18T06:39:45;99925.86;;;-8.57;42.10
59154;BME280;44935;48.944;9.418;2022-12-18T06:42:18;99932.51;;;-8.43;40.80
59154;BME280;44935;48.944;9.418;2022-12-18T06:44:45;99930.20;;;-8.96;41.28
59154;BME280;44935;48.944;9.418;2022-12-18T06:47:12;99933.00;;;-8.39;41.37
59154;BME280;44935;48.944;9.418;2022-12-18T06:49:39;99932.62;;;-8.62;41.25
59154;BME280;44935;48.944;9.418;2022-12-18T06:52:05;99931.10;;;-9.13;41.64
59154;BME280;44935;48.944;9.418;2022-12-18T06:54:32;99927.42;;;-9.12;42.20
59154;BME280;44935;48.944;9.418;2022-12-18T06:57:00;99933.16;;;-8.47;42.12
59154;BME280;44935;48.944;9.418;2022-12-18T06:59:27;99937.92;;;-8.83;42.01
59154;BME280;44935;48.944;9.418;2022-12-18T07:01:53;99943.00;;;-8.62;42.36
59154;BME280;44935;48.944;9.418;2022-12-18T07:04:21;99949.99;;;-8.87;42.48
59154;BME280;44935;48.944;9.418;2022-12-18T07:06:48;99951.62;;;-8.36;42.72
59154;BME280;44935;48.944;9.418;2022-12-18T07:09:16;99954.88;;;-7.74;42.55
59154;BME280;44935;48.944;9.418;2022-12-18T07:11:43;99959.64;;;-10.99;47.46
59154;BME280;44935;48.944;9.418;2022-12-18T07:14:10;99952.91;;;-12.16;50.23
59154;BME280;44935;48.944;9.418;2022-12-18T07:16:37;99954.80;;;-8.77;42.73
59154;BME280;44935;48.944;9.418;2022-12-18T07:19:04;99961.83;;;-8.34;41.95
59154;BME280;44935;48.944;9.418;2022-12-18T07:21:32;99967.84;;;-8.31;41.93
59154;BME280;44935;48.944;9.418;2022-12-18T07:23:59;99968.93;;;-8.46;42.62
59154;BME280;44935;48.944;9.418;2022-12-18T07:26:26;99968.25;;;-7.61;41.66
59154;BME280;44935;48.944;9.418;2022-12-18T07:28:56;99967.82;;;-7.38;40.75
59154;BME280;44935;48.944;9.418;2022-12-18T07:31:24;99970.08;;;-8.06;41.07
59154;BME280;44935;48.944;9.418;2022-12-18T07:33:52;99973.20;;;-8.63;41.86
59154;BME280;44935;48.944;9.418;2022-12-18T07:36:25;99974.25;;;-8.60;41.97
59154;BME280;44935;48.944;9.418;2022-12-18T07:38:52;99977.79;;;-8.05;42.21
59154;BME280;44935;48.944;9.418;2022-12-18T07:41:19;99983.14;;;-8.56;42.19
59154;BME280;44935;48.944;9.418;2022-12-18T07:43:46;99986.99;;;-8.03;42.72
59154;BME280;44935;48.944;9.418;2022-12-18T07:46:15;99989.05;;;-7.98;42.79
59154;BME280;44935;48.944;9.418;2022-12-18T07:48:45;99990.40;;;-7.49;42.16
59154;BME280;44935;48.944;9.418;2022-12-18T07:51:15;99990.39;;;-7.91;41.19
59154;BME280;44935;48.944;9.418;2022-12-18T07:53:44;99991.34;;;-8.75;41.40
59154;BME280;44935;48.944;9.418;2022-12-18T07:56:12;99993.07;;;-8.60;42.25
59154;BME280;44935;48.944;9.418;2022-12-18T07:58:40;99993.49;;;-9.57;43.85
59154;BME280;44935;48.944;9.418;2022-12-18T08:01:09;99992.69;;;-8.33;43.19
59154;BME280;44935;48.944;9.418;2022-12-18T08:03:37;99995.50;;;-7.22;39.84
59154;BME280;44935;48.944;9.418;2022-12-18T08:06:07;99990.64;;;-7.36;40.28
59154;BME280;44935;48.944;9.418;2022-12-18T08:08:35;99992.91;;;-7.52;40.51
59154;BME280;44935;48.944;9.418;2022-12-18T08:11:03;99991.83;;;-7.00;41.45
59154;BME280;44935;48.944;9.418;2022-12-18T08:13:30;99991.19;;;-6.86;41.21
59154;BME280;44935;48.944;9.418;2022-12-18T08:15:58;99990.56;;;-6.89;41.06
59154;BME280;44935;48.944;9.418;2022-12-18T08:18:26;99986.04;;;-6.28;40.49
59154;BME280;44935;48.944;9.418;2022-12-18T08:20:55;99988.46;;;-6.93;40.72
59154;BME280;44935;48.944;9.418;2022-12-18T08:23:22;99985.56;;;-6.87;41.67
59154;BME280;44935;48.944;9.418;2022-12-18T08:25:50;99988.88;;;-6.60;42.28
59154;BME280;44935;48.944;9.418;2022-12-18T08:28:17;99982.97;;;-6.27;41.46
59154;BME280;44935;48.944;9.418;2022-12-18T08:30:45;99988.85;;;-5.98;41.59
59154;BME280;44935;48.944;9.418;2022-12-18T08:33:17;99995.80;;;-5.58;41.55
59154;BME280;44935;48.944;9.418;2022-12-18T08:35:49;99992.87;;;-5.58;41.70
59154;BME280;44935;48.944;9.418;2022-12-18T08:38:17;99994.14;;;-5.51;41.39
59154;BME280;44935;48.944;9.418;2022-12-18T08:40:49;99993.64;;;-5.88;41.64
59154;BME280;44935;48.944;9.418;2022-12-18T08:43:16;99993.35;;;-5.69;42.02
59154;BME280;44935;48.944;9.418;2022-12-18T08:45:46;99994.51;;;-5.60;42.23
59154;BME280;44935;48.944;9.418;2022-12-18T08:48:13;99987.50;;;-5.39;42.04
59154;BME280;44935;48.944;9.418;2022-12-18T08:50:40;99982.88;;;-5.50;42.16
59154;BME280;44935;48.944;9.418;2022-12-18T08:53:07;99983.64;;;-5.00;42.31
59154;BME280;44935;48.944;9.418;2022-12-18T08:55:34;99982.64;;;-5.21;42.53
59154;BME280;44935;48.944;9.418;2022-12-18T08:58:01;99981.68;;;-4.98;43.02
59154;BME280;44935;48.944;9.418;2022-12-18T09:00:29;99990.16;;;-5.23;43.91
59154;BME280;44935;48.944;9.418;2022-12-18T09:02:56;99989.47;;;-5.17;44.26
59154;BME280;44935;48.944;9.418;2022-12-18T09:05:23;99990.56;;;-5.86;45.58
59154;BME280;44935;48.944;9.418;2022-12-18T09:07:56;99987.66;;;-6.01;45.73
59154;BME280;44935;48.944;9.418;2022-12-18T09:10:23;99975.38;;;-4.94;44.00
59154;BME280;44935;48.944;9.418;2022-12-18T09:12:50;99971.24;;;-7.65;49.63
59154;BME280;44935;48.944;9.418;2022-12-18T09:15:17;99962.74;;;-7.82;50.91
59154;BME280;44935;48.944;9.418;2022-12-18T09:17:44;99962.88;;;-7.65;52.76
59154;BME280;44935;48.944;9.418;2022-12-18T09:20:11;99967.11;;;-6.93;50.17
59154;BME280;44935;48.944;9.418;2022-12-18T09:22:38;99970.10;;;-6.92;50.29
59154;BME280;44935;48.944;9.418;2022-12-18T09:25:05;99965.60;;;-7.41;51.80
59154;BME280;44935;48.944;9.418;2022-12-18T09:27:33;99964.68;;;-7.94;52.81
59154;BME280;44935;48.944;9.418;2022-12-18T09:30:00;99959.50;;;-5.34;48.08
59154;BME280;44935;48.944;9.418;2022-12-18T09:32:27;99962.30;;;-6.02;47.94
59154;BME280;44935;48.944;9.418;2022-12-18T09:34:54;99954.92;;;-5.20;46.33
59154;BME280;44935;48.944;9.418;2022-12-18T09:37:21;99959.92;;;-6.99;50.35
59154;BME280;44935;48.944;9.418;2022-12-18T09:39:49;99957.98;;;-6.70;50.86
59154;BME280;44935;48.944;9.418;2022-12-18T09:42:20;99949.30;;;-6.66;50.68
59154;BME280;44935;48.944;9.418;2022-12-18T09:44:50;99953.54;;;-7.39;52.44
59154;BME280;44935;48.944;9.418;2022-12-18T09:47:22;99944.53;;;-6.29;51.02
59154;BME280;44935;48.944;9.418;2022-12-18T09:49:53;99943.60;;;-6.96;52.31
59154;BME280;44935;48.944;9.418;2022-12-18T09:52:25;99939.94;;;-5.58;48.78
59154;BME280;44935;48.944;9.418;2022-12-18T09:54:58;99945.92;;;-4.47;47.61
59154;BME280;44935;48.944;9.418;2022-12-18T09:57:32;99946.00;;;-6.19;50.13
59154;BME280;44935;48.944;9.418;2022-12-18T10:00:15;99941.74;;;-5.27;49.13
59154;BME280;44935;48.944;9.418;2022-12-18T10:02:43;99933.07;;;-4.84;47.95
59154;BME280;44935;48.944;9.418;2022-12-18T10:05:13;99929.15;;;-5.85;49.44
59154;BME280;44935;48.944;9.418;2022-12-18T10:07:55;99928.13;;;-6.31;51.41
59154;BME280;44935;48.944;9.418;2022-12-18T10:10:34;99923.60;;;-4.08;47.43
59154;BME280;44935;48.944;9.418;2022-12-18T10:13:10;99922.38;;;-2.81;44.57
59154;BME280;44935;48.944;9.418;2022-12-18T10:15:49;99930.65;;;-5.06;47.74
59154;BME280;44935;48.944;9.418;2022-12-18T10:18:26;99933.72;;;-6.23;52.16
59154;BME280;44935;48.944;9.418;2022-12-18T10:20:59;99937.09;;;-4.79;48.00
59154;BME280;44935;48.944;9.418;2022-12-18T10:23:33;99929.76;;;-3.17;44.87
59154;BME280;44935;48.944;9.418;2022-12-18T10:26:13;99929.66;;;-2.53;44.85
59154;BME280;44935;48.944;9.418;2022-12-18T10:28:42;99932.26;;;-3.29;46.18
59154;BME280;44935;48.944;9.418;2022-12-18T10:31:15;99939.19;;;-2.97;45.44
59154;BME280;44935;48.944;9.418;2022-12-18T10:33:43;99939.68;;;-5.41;50.27
59154;BME280;44935;48.944;9.418;2022-12-18T10:36:11;99942.48;;;-3.19;46.75
59154;BME280;44935;48.944;9.418;2022-12-18T10:38:39;99940.47;;;-2.90;45.74
59154;BME280;44935;48.944;9.418;2022-12-18T10:41:24;99935.83;;;-5.11;49.63
59154;BME280;44935;48.944;9.418;2022-12-18T10:44:11;99933.61;;;-3.16;46.93
59154;BME280;44935;48.944;9.418;2022-12-18T10:46:39;99931.67;;;-3.74;47.17
59154;BME280;44935;48.944;9.418;2022-12-18T10:49:19;99941.91;;;-3.86;47.46
59154;BME280;44935;48.944;9.418;2022-12-18T10:51:47;99955.52;;;-4.83;50.17
59154;BME280;44935;48.944;9.418;2022-12-18T10:54:21;99953.04;;;-4.44;49.13
59154;BME280;44935;48.944;9.418;2022-12-18T10:56:49;99951.21;;;-3.61;46.92
59154;BME280;44935;48.944;9.418;2022-12-18T10:59:19;99957.02;;;-4.38;49.70
59154;BME280;44935;48.944;9.418;2022-12-18T11:01:50;99950.88;;;-3.82;48.79
59154;BME280;44935;48.944;9.418;2022-12-18T11:04:21;99941.83;;;-4.15;49.18
59154;BME280;44935;48.944;9.418;2022-12-18T11:06:58;99935.18;;;-4.18;49.95
59154;BME280;44935;48.944;9.418;2022-12-18T11:09:28;99932.24;;;-4.77;51.07
59154;BME280;44935;48.944;9.418;2022-12-18T11:11:56;99932.83;;;-4.17;50.62
59154;BME280;44935;48.944;9.418;2022-12-18T11:14:26;99932.24;;;-4.15;51.05
59154;BME280;44935;48.944;9.418;2022-12-18T11:16:55;99932.64;;;-3.02;47.88
59154;BME280;44935;48.944;9.418;2022-12-18T11:19:31;99924.25;;;-2.11;46.35
59154;BME280;44935;48.944;9.418;2022-12-18T11:22:03;99921.33;;;-2.16;45.35
59154;BME280;44935;48.944;9.418;2022-12-18T11:24:52;99914.73;;;-3.07;46.64
59154;BME280;44935;48.944;9.418;2022-12-18T11:27:21;99911.00;;;-2.52;45.89
59154;BME280;44935;48.944;9.418;2022-12-18T11:29:51;99906.52;;;-2.36;46.17
59154;BME280;44935;48.944;9.418;2022-12-18T11:32:29;99897.65;;;-3.68;48.42
59154;BME280;44935;48.944;9.418;2022-12-18T11:35:03;99898.36;;;-2.12;45.71
59154;BME280;44935;48.944;9.418;2022-12-18T11:37:36;99896.73;;;-1.81;46.09
59154;BME280;44935;48.944;9.418;2022-12-18T11:40:11;99897.70;;;-1.95;45.10
59154;BME280;44935;48.944;9.418;2022-12-18T11:42:47;99902.85;;;-4.12;49.93
59154;BME280;44935;48.944;9.418;2022-12-18T11:45:27;99898.04;;;-3.73;49.71
59154;BME280;44935;48.944;9.418;2022-12-18T11:47:59;99891.46;;;-2.14;47.34
59154;BME280;44935;48.944;9.418;2022-12-18T11:50:46;99882.06;;;-1.02;45.10
59154;BME280;44935;48.944;9.418;2022-12-18T11:53:17;99877.60;;;-1.43;44.69
59154;BME280;44935;48.944;9.418;2022-12-18T11:55:54;99878.48;;;-1.67;45.93
59154;BME280;44935;48.944;9.418;2022-12-18T11:58:33;99874.74;;;-0.29;42.90
59154;BME280;44935;48.944;9.418;2022-12-18T12:01:13;99873.49;;;-1.54;44.05
59154;BME280;44935;48.944;9.418;2022-12-18T12:04:40;99867.05;;;-1.20;43.90
59154;BME280;44935;48.944;9.418;2022-12-18T12:07:19;99871.87;;;-1.72;45.14
59154;BME280;44935;48.944;9.418;2022-12-18T12:09:58;99875.80;;;-3.80;48.34
59154;BME280;44935;48.944;9.418;2022-12-18T12:12:34;99862.59;;;-1.50;44.34
59154;BME280;44935;48.944;9.418;2022-12-18T12:15:16;99856.77;;;-1.27;44.12
59154;BME280;44935;48.944;9.418;2022-12-18T12:17:51;99849.11;;;-1.22;43.88
59154;BME280;44935;48.944;9.418;2022-12-18T12:20:26;99851.08;;;-3.22;48.02
59154;BME280;44935;48.944;9.418;2022-12-18T12:23:02;99845.92;;;-0.93;44.90
59154;BME280;44935;48.944;9.418;2022-12-18T12:25:39;99848.32;;;-1.47;44.22
59154;BME280;44935;48.944;9.418;2022-12-18T12:28:19;99849.79;;;-1.45;44.36
59154;BME280;44935;48.944;9.418;2022-12-18T12:30:56;99848.20;;;-2.30;45.56
59154;BME280;44935;48.944;9.418;2022-12-18T12:33:37;99847.87;;;-1.46;45.20
59154;BME280;44935;48.944;9.418;2022-12-18T12:36:13;99851.25;;;-2.98;47.60
59154;BME280;44935;48.944;9.418;2022-12-18T12:38:50;99849.29;;;-2.40;46.76
59154;BME280;44935;48.944;9.418;2022-12-18T12:41:24;99848.21;;;-1.09;44.44
59154;BME280;44935;48.944;9.418;2022-12-18T12:43:56;99850.53;;;0.47;41.54
59154;BME280;44935;48.944;9.418;2022-12-18T12:46:25;99853.77;;;-1.53;44.72
59154;BME280;44935;48.944;9.418;2022-12-18T12:48:56;99855.92;;;-1.32;45.20
59154;BME280;44935;48.944;9.418;2022-12-18T12:51:26;99851.00;;;0.28;41.51
59154;BME280;44935;48.944;9.418;2022-12-18T12:53:57;99851.43;;;0.15;41.34
59154;BME280;44935;48.944;9.418;2022-12-18T12:56:39;99852.78;;;-2.71;47.06
59154;BME280;44935;48.944;9.418;2022-12-18T12:59:14;99849.64;;;-0.16;42.04
59154;BME280;44935;48.944;9.418;2022-12-18T13:01:54;99855.63;;;-1.86;44.72
59154;BME280;44935;48.944;9.418;2022-12-18T13:04:30;99852.31;;;0.56;41.29
59154;BME280;44935;48.944;9.418;2022-12-18T13:07:10;99851.13;;;-1.32;43.68
59154;BME280;44935;48.944;9.418;2022-12-18T13:10:19;99849.75;;;1.23;39.75
59154;BME280;44935;48.944;9.418;2022-12-18T13:12:54;99857.77;;;1.09;39.97
59154;BME280;44935;48.944;9.418;2022-12-18T13:15:24;99853.86;;;1.07;39.68
59154;BME280;44935;48.944;9.418;2022-12-18T13:18:04;99851.64;;;1.00;39.32
59154;BME280;44935;48.944;9.418;2022-12-18T13:20:34;99851.34;;;-0.64;42.78